Sidney, Maine
Current Conditions -  °F | °C
As of 5:27 AM on Tuesday 27 Jan 2015 (Local Time) from KAUG Reporting Station
Moderate Snow Moderate Snow  
Wind Chill: -14°   Ceiling: 900
Heat Index:   Visibility: 0.5mi
Dew Point:   Wind: 24mph
Humidity: 80%   Direction: 20°NNE
Pressure: 29.86"   Gusts: 41mph
Location:  44.3261°N, 69.698°W
Report Text: KAUG 271027Z AUTO 02021G36KT 1/2SM SN VV009 M14/M17 A2986 RMK AO2 PK WND 02037/0958 PRESFR P0000 T11391167
Loading
Personal Weather Stations






























Interactive Weather Map New forecast layout! Learn more

10-Day Weather Forecast

Advertisements
Track Severe Weather on mobile